createdAt,value
2018-06-04T00:00:01.547Z,78
2018-06-04T00:00:27.690Z,77.71
2018-06-04T00:00:53.826Z,77.71
2018-06-04T00:01:19.962Z,77.81
2018-06-04T00:01:46.104Z,77.81
2018-06-04T00:02:12.261Z,77.71
2018-06-04T00:02:38.401Z,78.29
2018-06-04T00:03:04.571Z,77.9
2018-06-04T00:03:30.734Z,78.09
2018-06-04T00:03:56.878Z,78.19
2018-06-04T00:04:23.011Z,78.29
2018-06-04T00:04:49.180Z,78.48
2018-06-04T00:05:15.317Z,78.96
2018-06-04T00:05:41.456Z,78.77
2018-06-04T00:06:07.598Z,78.77
2018-06-04T00:06:33.745Z,78.58
2018-06-04T00:06:59.882Z,78.67
2018-06-04T00:07:26.019Z,78.58
2018-06-04T00:07:52.177Z,78
2018-06-04T00:08:18.320Z,78.19
2018-06-04T00:08:44.461Z,77.9
2018-06-04T00:09:10.604Z,78.58
2018-06-04T00:09:36.765Z,78.29
2018-06-04T00:10:02.906Z,78.29
2018-06-04T00:10:29.039Z,78.38
2018-06-04T00:10:55.569Z,77.9
2018-06-04T00:11:21.707Z,77.9
2018-06-04T00:11:47.845Z,77.81
2018-06-04T00:12:13.989Z,77.71
2018-06-04T00:12:40.138Z,77.71
2018-06-04T00:13:06.267Z,77.81
2018-06-04T00:13:32.410Z,78.58
2018-06-04T00:13:58.575Z,78.09
2018-06-04T00:14:24.740Z,77.9
2018-06-04T00:14:50.906Z,78.19
2018-06-04T00:15:17.049Z,78.29
2018-06-04T00:15:43.190Z,78.29
2018-06-04T00:16:09.329Z,78.29
2018-06-04T00:16:35.472Z,78.58
2018-06-04T00:17:01.616Z,78.29
2018-06-04T00:17:27.756Z,78.29
2018-06-04T00:17:53.887Z,77.9
2018-06-04T00:18:20.028Z,77.9
2018-06-04T00:18:46.195Z,78.19
2018-06-04T00:19:12.358Z,78.09
2018-06-04T00:19:38.502Z,78.09
2018-06-04T00:20:04.639Z,78.09
2018-06-04T00:20:30.806Z,77.81
2018-06-04T00:20:56.947Z,78.09
2018-06-04T00:21:23.087Z,78
2018-06-04T00:21:49.226Z,78.09
2018-06-04T00:22:15.392Z,78.19
2018-06-04T00:22:41.532Z,78.19
2018-06-04T00:23:07.668Z,77.71
2018-06-04T00:23:33.809Z,78.09
2018-06-04T00:23:59.944Z,78
2018-06-04T00:24:26.112Z,77.9
2018-06-04T00:24:52.271Z,77.9
2018-06-04T00:25:18.439Z,77.71
2018-06-04T00:25:44.585Z,77.9
2018-06-04T00:26:10.721Z,77.9
2018-06-04T00:26:36.862Z,78
2018-06-04T00:27:03.023Z,77.81
2018-06-04T00:27:29.162Z,77.86
2018-06-04T00:27:55.328Z,78.25
2018-06-04T00:28:21.496Z,77.96
2018-06-04T00:28:47.637Z,78.06
2018-06-04T00:29:13.773Z,78.19
2018-06-04T00:29:39.935Z,78.54
2018-06-04T00:30:06.084Z,78.48
2018-06-04T00:30:32.220Z,77.86
2018-06-04T00:30:58.392Z,77.96
2018-06-04T00:31:24.531Z,78.38
2018-06-04T00:31:50.675Z,77.76
2018-06-04T00:32:16.893Z,78.19
2018-06-04T00:32:42.977Z,78.09
2018-06-04T00:33:09.116Z,77.71
2018-06-04T00:33:35.261Z,77.67
2018-06-04T00:34:01.399Z,77.67
2018-06-04T00:34:27.535Z,78.15
2018-06-04T00:34:53.707Z,77.96
2018-06-04T00:35:19.873Z,78.19
2018-06-04T00:35:46.009Z,78
2018-06-04T00:36:12.142Z,77.86
2018-06-04T00:36:38.307Z,77.9
2018-06-04T00:37:04.450Z,78
2018-06-04T00:37:30.579Z,77.9
2018-06-04T00:37:56.752Z,77.61
2018-06-04T00:38:22.888Z,77.61
2018-06-04T00:38:49.017Z,77.9
2018-06-04T00:39:15.158Z,77.9
2018-06-04T00:39:41.297Z,77.9
2018-06-04T00:40:07.432Z,77.9
2018-06-04T00:40:33.575Z,78
2018-06-04T00:40:59.716Z,78.25
2018-06-04T00:41:25.860Z,77.96
2018-06-04T00:41:51.994Z,77.86
2018-06-04T00:42:18.133Z,77.9
2018-06-04T00:42:44.301Z,78.38
2018-06-04T00:43:10.437Z,78.25
2018-06-04T00:43:36.587Z,77.96
2018-06-04T00:44:02.752Z,78.29
2018-06-04T00:44:28.887Z,78.25
2018-06-04T00:44:55.062Z,78.06
2018-06-04T00:45:21.200Z,78.15
2018-06-04T00:45:47.333Z,78.34
2018-06-04T00:46:13.475Z,78.63
2018-06-04T00:46:39.624Z,78.73
2018-06-04T00:47:05.758Z,78.44
2018-06-04T00:47:31.895Z,78.44
2018-06-04T00:47:58.035Z,78.83
2018-06-04T00:48:24.179Z,78.63
2018-06-04T00:48:50.315Z,78.15
2018-06-04T00:49:16.456Z,78.44
2018-06-04T00:49:42.601Z,78.73
2018-06-04T00:50:08.739Z,78.73
2018-06-04T00:50:34.879Z,78.34
2018-06-04T00:51:01.017Z,78.06
2018-06-04T00:51:27.166Z,78.34
2018-06-04T00:51:53.297Z,78.34
2018-06-04T00:52:19.437Z,78.34
2018-06-04T00:52:45.579Z,78.54
2018-06-04T00:53:11.721Z,78.34
2018-06-04T00:53:37.855Z,78.34
2018-06-04T00:54:04.000Z,78.34
2018-06-04T00:54:30.144Z,78.44
2018-06-04T00:54:56.280Z,78.44
2018-06-04T00:55:22.419Z,78.54
2018-06-04T00:55:48.558Z,78.34
2018-06-04T00:56:14.697Z,78.54
2018-06-04T00:56:40.843Z,78.83
2018-06-04T00:57:06.982Z,78.83
2018-06-04T00:57:33.124Z,78.83
2018-06-04T00:57:59.267Z,79.02
2018-06-04T00:58:25.412Z,78.92
2018-06-04T00:58:51.551Z,78.92
2018-06-04T00:59:17.694Z,78.83
2018-06-04T00:59:43.839Z,78.92
2018-06-04T01:00:09.975Z,79.11
2018-06-04T01:00:36.116Z,78.73
2018-06-04T01:01:02.281Z,79.11
2018-06-04T01:01:28.466Z,79.31
2018-06-04T01:01:54.606Z,79.31
2018-06-04T01:02:20.749Z,79.02
2018-06-04T01:02:46.886Z,79.31
2018-06-04T01:03:13.018Z,78.83
2018-06-04T01:03:39.191Z,79.02
2018-06-04T01:04:05.336Z,78.92
2018-06-04T01:04:31.475Z,78.92
2018-06-04T01:04:57.611Z,78.83
2018-06-04T01:05:23.764Z,78.73
2018-06-04T01:05:49.891Z,79.21
2018-06-04T01:06:16.036Z,79.02
2018-06-04T01:06:42.197Z,79.11
2018-06-04T01:07:08.339Z,78.92
2018-06-04T01:07:34.483Z,79.31
2018-06-04T01:08:00.620Z,78.92
2018-06-04T01:08:26.779Z,79.11
2018-06-04T01:08:52.944Z,79.21
2018-06-04T01:09:19.084Z,78.73
2018-06-04T01:09:45.227Z,79.21
2018-06-04T01:10:11.355Z,79.02
2018-06-04T01:10:37.498Z,79.11
2018-06-04T01:11:03.631Z,79.11
2018-06-04T01:11:29.800Z,79.41
2018-06-04T01:11:55.941Z,79.5
2018-06-04T01:12:22.085Z,79.11
2018-06-04T01:12:48.220Z,79.02
2018-06-04T01:13:14.397Z,79.02
2018-06-04T01:13:40.564Z,79.11
2018-06-04T01:14:06.727Z,79.02
2018-06-04T01:14:32.904Z,78.92
2018-06-04T01:14:59.048Z,79.02
2018-06-04T01:15:25.192Z,79.11
2018-06-04T01:15:51.327Z,79.21
2018-06-04T01:16:17.470Z,79.6
2018-06-04T01:16:43.613Z,79.5
2018-06-04T01:17:09.748Z,79.31
2018-06-04T01:17:35.914Z,79.5
2018-06-04T01:18:02.053Z,79.41
2018-06-04T01:18:28.191Z,79.41
2018-06-04T01:18:54.355Z,79.5
2018-06-04T01:19:20.522Z,79.69
2018-06-04T01:19:46.678Z,79.89
2018-06-04T01:20:12.819Z,79.69
2018-06-04T01:20:38.956Z,79.69
2018-06-04T01:21:05.120Z,79.5
2018-06-04T01:21:31.263Z,79.69
2018-06-04T01:21:57.421Z,79.6
2018-06-04T01:22:23.565Z,79.69
2018-06-04T01:22:49.702Z,79.6
2018-06-04T01:23:15.850Z,79.69
2018-06-04T01:23:41.982Z,79.98
2018-06-04T01:24:08.112Z,79.98
2018-06-04T01:24:34.251Z,79.98
2018-06-04T01:25:00.396Z,79.89
2018-06-04T01:25:26.550Z,79.6
2018-06-04T01:25:52.687Z,79.69
2018-06-04T01:26:18.832Z,79.79
2018-06-04T01:26:44.972Z,79.46
2018-06-04T01:27:11.114Z,79.5
2018-06-04T01:27:37.259Z,79.85
2018-06-04T01:28:03.428Z,80.33
2018-06-04T01:28:29.568Z,80.33
2018-06-04T01:28:55.708Z,80.14
2018-06-04T01:29:21.850Z,80.14
2018-06-04T01:29:47.988Z,80.04
2018-06-04T01:30:14.139Z,80.33
2018-06-04T01:30:40.324Z,80.14
2018-06-04T01:31:06.450Z,80.52
2018-06-04T01:31:32.595Z,80.23
2018-06-04T01:31:58.756Z,80.52
2018-06-04T01:32:24.898Z,80.23
2018-06-04T01:32:51.031Z,80.33
2018-06-04T01:33:17.172Z,80.52
2018-06-04T01:33:43.313Z,80.62
2018-06-04T01:34:09.448Z,80.52
2018-06-04T01:34:35.596Z,80.43
2018-06-04T01:35:01.767Z,80.91
2018-06-04T01:35:27.901Z,80.33
2018-06-04T01:35:54.045Z,80.33
2018-06-04T01:36:20.179Z,80.43
2018-06-04T01:36:46.315Z,80.62
2018-06-04T01:37:12.450Z,80.81
2018-06-04T01:37:38.591Z,80.91
2018-06-04T01:38:04.741Z,80.62
2018-06-04T01:38:30.875Z,80.71
2018-06-04T01:38:57.018Z,80.52
2018-06-04T01:39:23.154Z,80.33
2018-06-04T01:39:49.296Z,80.62
2018-06-04T01:40:15.435Z,80.71
2018-06-04T01:40:41.578Z,80.23
2018-06-04T01:41:07.713Z,80.33
2018-06-04T01:41:33.881Z,80.81
2018-06-04T01:42:00.023Z,80.91
2018-06-04T01:42:26.182Z,80.91
2018-06-04T01:42:52.323Z,80.33
2018-06-04T01:43:18.458Z,81.01
2018-06-04T01:43:44.626Z,80.91
2018-06-04T01:44:10.767Z,80.33
2018-06-04T01:44:36.903Z,81.01
2018-06-04T01:45:03.069Z,80.23
2018-06-04T01:45:29.208Z,80.71
2018-06-04T01:45:55.345Z,80.43
2018-06-04T01:46:21.488Z,80.43
2018-06-04T01:46:47.630Z,80.52
2018-06-04T01:47:13.769Z,79.94
2018-06-04T01:47:39.911Z,80.52
2018-06-04T01:48:06.052Z,80.14
2018-06-04T01:48:32.216Z,80.04
2018-06-04T01:48:58.378Z,80.23
2018-06-04T01:49:24.514Z,80.04
2018-06-04T01:49:50.653Z,80.04
2018-06-04T01:50:16.790Z,80.14
2018-06-04T01:50:42.939Z,80.04
2018-06-04T01:51:09.088Z,79.69
2018-06-04T01:51:35.238Z,79.66
2018-06-04T01:52:01.385Z,79.66
2018-06-04T01:52:27.520Z,80.23
2018-06-04T01:52:53.657Z,79.94
2018-06-04T01:53:19.797Z,79.66
2018-06-04T01:53:45.968Z,80.04
2018-06-04T01:54:12.136Z,80.14
2018-06-04T01:54:38.291Z,80.33
2018-06-04T01:55:04.425Z,79.75
2018-06-04T01:55:30.564Z,80.04
2018-06-04T01:55:56.704Z,80.04
2018-06-04T01:56:22.850Z,80.04
2018-06-04T01:56:48.985Z,79.94
2018-06-04T01:57:15.131Z,80.52
2018-06-04T01:57:41.268Z,80.14
2018-06-04T01:58:07.413Z,79.94
2018-06-04T01:58:33.556Z,80.62
2018-06-04T01:58:59.690Z,80.23
2018-06-04T01:59:25.886Z,80.52
2018-06-04T01:59:52.044Z,80.71
2018-06-04T02:00:18.189Z,80.52
2018-06-04T02:00:44.352Z,80.71
2018-06-04T02:01:10.523Z,80.62
2018-06-04T02:01:36.653Z,80.52
2018-06-04T02:02:02.794Z,80.62
2018-06-04T02:02:28.926Z,80.43
2018-06-04T02:02:55.075Z,80.71
2018-06-04T02:03:21.220Z,80.91
2018-06-04T02:03:47.358Z,80.23
2018-06-04T02:04:13.502Z,80.52
2018-06-04T02:04:39.641Z,80.23
2018-06-04T02:05:05.775Z,80.43
2018-06-04T02:05:31.918Z,80.23
2018-06-04T02:05:58.057Z,80.43
2018-06-04T02:06:24.194Z,80.62
2018-06-04T02:06:50.337Z,80.91
2018-06-04T02:07:16.472Z,80.62
2018-06-04T02:07:42.619Z,80.52
2018-06-04T02:08:08.749Z,80.43
2018-06-04T02:08:34.885Z,80.52
2018-06-04T02:09:01.049Z,80.91
2018-06-04T02:09:27.188Z,81.01
2018-06-04T02:09:53.327Z,81.1
2018-06-04T02:10:19.473Z,81.01
2018-06-04T02:10:45.613Z,81.1
2018-06-04T02:11:11.753Z,80.52
2018-06-04T02:11:37.900Z,80.62
2018-06-04T02:12:04.044Z,81.1
2018-06-04T02:12:30.178Z,80.91
2018-06-04T02:12:56.321Z,81.1
2018-06-04T02:13:22.461Z,80.43
2018-06-04T02:13:48.624Z,80.91
2018-06-04T02:14:14.764Z,81.29
2018-06-04T02:14:40.904Z,80.62
2018-06-04T02:15:07.061Z,81.2
2018-06-04T02:15:33.209Z,81.29
2018-06-04T02:15:59.347Z,81.1
2018-06-04T02:16:25.493Z,80.71
2018-06-04T02:16:51.631Z,80.81
2018-06-04T02:17:17.768Z,80.91
2018-06-04T02:17:43.908Z,81.06
2018-06-04T02:18:10.048Z,81.1
2018-06-04T02:18:36.180Z,81.1
2018-06-04T02:19:02.322Z,81.1
2018-06-04T02:19:28.495Z,80.91
2018-06-04T02:19:54.699Z,80.91
2018-06-04T02:20:20.839Z,81.1
2018-06-04T02:20:47.004Z,80.91
2018-06-04T02:21:13.175Z,81.1
2018-06-04T02:21:39.329Z,80.91
2018-06-04T02:22:05.475Z,80.91
2018-06-04T02:22:31.611Z,80.81
2018-06-04T02:22:57.760Z,81.1
2018-06-04T02:23:23.919Z,81.1
2018-06-04T02:23:50.055Z,80.87
2018-06-04T02:24:16.208Z,80.87
2018-06-04T02:24:42.349Z,80.77
2018-06-04T02:25:08.505Z,80.91
2018-06-04T02:25:34.652Z,80.81
2018-06-04T02:26:00.786Z,81.01
2018-06-04T02:26:26.922Z,81.01
2018-06-04T02:26:53.070Z,80.91
2018-06-04T02:27:19.209Z,81.29
2018-06-04T02:27:45.354Z,81.63
2018-06-04T02:28:11.490Z,81.58
2018-06-04T02:28:37.632Z,81.25
2018-06-04T02:29:03.855Z,81.45
2018-06-04T02:29:30.000Z,81.83
2018-06-04T02:29:56.133Z,82.06
2018-06-04T02:30:22.324Z,82.02
2018-06-04T02:30:48.471Z,81.63
2018-06-04T02:31:14.610Z,82.02
2018-06-04T02:31:40.767Z,81.73
2018-06-04T02:32:06.904Z,82.26
2018-06-04T02:32:33.043Z,81.73
2018-06-04T02:32:59.235Z,82.21
2018-06-04T02:33:25.429Z,82.21
2018-06-04T02:33:51.567Z,81.93
2018-06-04T02:34:17.744Z,82.02
2018-06-04T02:34:43.934Z,81.73
2018-06-04T02:35:10.124Z,81.54
2018-06-04T02:35:36.264Z,82.02
2018-06-04T02:36:02.402Z,82.41
2018-06-04T02:36:28.590Z,81.83
2018-06-04T02:36:54.781Z,81.54
2018-06-04T02:37:20.950Z,81.83
2018-06-04T02:37:47.082Z,81.73
2018-06-04T02:38:13.258Z,81.54
2018-06-04T02:38:39.412Z,81.73
2018-06-04T02:39:05.560Z,81.73
2018-06-04T02:39:31.702Z,81.93
2018-06-04T02:39:57.872Z,81.73
2018-06-04T02:40:24.036Z,81.93
2018-06-04T02:40:50.216Z,81.54
2018-06-04T02:41:16.370Z,81.73
2018-06-04T02:41:42.530Z,82.02
2018-06-04T02:42:08.723Z,81.63
2018-06-04T02:42:34.876Z,81.83
2018-06-04T02:43:01.044Z,81.93
2018-06-04T02:43:27.182Z,81.73
2018-06-04T02:43:53.353Z,81.54
2018-06-04T02:44:19.507Z,82.12
2018-06-04T02:44:45.675Z,82.12
2018-06-04T02:45:11.813Z,81.45
2018-06-04T02:45:37.991Z,81.16
2018-06-04T02:46:04.131Z,81.45
2018-06-04T02:46:30.302Z,81.93
2018-06-04T02:46:56.471Z,81.83
2018-06-04T02:47:22.632Z,82.12
2018-06-04T02:47:48.846Z,81.25
2018-06-04T02:48:15.042Z,81.16
2018-06-04T02:48:41.202Z,82.02
2018-06-04T02:49:07.364Z,81.06
2018-06-04T02:49:33.503Z,82.02
2018-06-04T02:49:59.700Z,81.73
2018-06-04T02:50:25.821Z,81.93
2018-06-04T02:50:51.958Z,82.12
2018-06-04T02:51:18.118Z,82.12
2018-06-04T02:51:44.288Z,81.93
2018-06-04T02:52:10.433Z,82.02
2018-06-04T02:52:36.592Z,81.63
2018-06-04T02:53:02.728Z,81.73
2018-06-04T02:53:28.878Z,81.54
2018-06-04T02:53:55.019Z,82.12
2018-06-04T02:54:21.178Z,81.93
2018-06-04T02:54:47.365Z,82.02
2018-06-04T02:55:13.553Z,81.93
2018-06-04T02:55:39.766Z,81.83
2018-06-04T02:56:05.869Z,81.93
2018-06-04T02:56:32.003Z,81.54
2018-06-04T02:56:58.195Z,81.83
2018-06-04T02:57:24.331Z,81.63
2018-06-04T02:57:50.518Z,81.54
2018-06-04T02:58:16.680Z,81.73
2018-06-04T02:58:42.822Z,81.73
2018-06-04T02:59:08.992Z,82.02
2018-06-04T02:59:35.130Z,81.73
2018-06-04T03:00:01.279Z,81.54
2018-06-04T03:00:27.469Z,81.73
2018-06-04T03:00:53.606Z,81.63
2018-06-04T03:01:19.744Z,81.93
2018-06-04T03:01:45.910Z,81.83
2018-06-04T03:02:12.164Z,82.31
2018-06-04T03:02:38.431Z,81.63
2018-06-04T03:03:04.619Z,82.31
2018-06-04T03:03:30.910Z,82.12
2018-06-04T03:03:57.103Z,82.21
2018-06-04T03:04:23.425Z,81.54
2018-06-04T03:04:49.620Z,82.21
2018-06-04T03:05:15.802Z,82.21
2018-06-04T03:05:41.966Z,82.12
2018-06-04T03:06:08.110Z,82.12
2018-06-04T03:06:34.289Z,82.31
2018-06-04T03:07:00.429Z,81.73
2018-06-04T03:07:26.594Z,81.73
2018-06-04T03:07:52.807Z,81.83
2018-06-04T03:08:18.953Z,82.02
2018-06-04T03:08:45.096Z,82.21
2018-06-04T03:09:11.233Z,81.93
2018-06-04T03:09:37.379Z,81.93
2018-06-04T03:10:03.562Z,81.83
2018-06-04T03:10:29.702Z,81.93
2018-06-04T03:10:55.839Z,81.83
2018-06-04T03:11:21.980Z,81.83
2018-06-04T03:11:48.139Z,81.93
2018-06-04T03:12:14.279Z,83.18
2018-06-04T03:12:40.421Z,82.89
2018-06-04T03:13:06.557Z,82.79
2018-06-04T03:13:32.718Z,82.7
2018-06-04T03:13:58.854Z,82.41
2018-06-04T03:14:25.048Z,82.7
2018-06-04T03:14:51.225Z,82.41
2018-06-04T03:15:17.389Z,82.6
2018-06-04T03:15:43.523Z,82.41
2018-06-04T03:16:09.721Z,82.7
2018-06-04T03:16:35.861Z,82.7
2018-06-04T03:17:02.054Z,83.28
2018-06-04T03:17:28.216Z,82.6
2018-06-04T03:17:54.357Z,81.73
2018-06-04T03:18:20.500Z,83.08
2018-06-04T03:18:46.634Z,82.65
2018-06-04T03:19:12.772Z,82.89
2018-06-04T03:19:38.917Z,82.65
2018-06-04T03:20:05.077Z,82.85
2018-06-04T03:20:31.211Z,82.79
2018-06-04T03:20:57.353Z,81.83
2018-06-04T03:21:23.513Z,82.31
2018-06-04T03:21:49.664Z,82.79
2018-06-04T03:22:15.798Z,82.5
2018-06-04T03:22:41.936Z,82.7
2018-06-04T03:23:08.080Z,82.6
2018-06-04T03:23:34.206Z,82.5
2018-06-04T03:24:00.349Z,82.46
2018-06-04T03:24:26.498Z,82.41
2018-06-04T03:24:52.629Z,82.37
2018-06-04T03:25:18.770Z,82.98
2018-06-04T03:25:44.913Z,82.41
2018-06-04T03:26:11.074Z,82.79
2018-06-04T03:26:37.221Z,82.56
2018-06-04T03:27:03.358Z,82.7
2018-06-04T03:27:29.495Z,82.7
2018-06-04T03:27:55.635Z,82.79
2018-06-04T03:28:21.779Z,82.65
2018-06-04T03:28:47.950Z,82.79
2018-06-04T03:29:14.090Z,82.7
2018-06-04T03:29:40.231Z,82.7
2018-06-04T03:30:06.452Z,82.79
2018-06-04T03:30:32.608Z,82.7
2018-06-04T03:30:58.768Z,82.37
2018-06-04T03:31:24.961Z,82.41
2018-06-04T03:31:51.126Z,82.27
2018-06-04T03:32:17.295Z,82.79
2018-06-04T03:32:43.431Z,82.6
2018-06-04T03:33:09.596Z,82.79
2018-06-04T03:33:35.734Z,82.6
2018-06-04T03:34:01.876Z,82.79
2018-06-04T03:34:28.009Z,82.94
2018-06-04T03:34:54.154Z,82.65
2018-06-04T03:35:20.305Z,82.6
2018-06-04T03:35:46.492Z,82.6
2018-06-04T03:36:12.631Z,82.7
2018-06-04T03:36:38.787Z,82.27
2018-06-04T03:37:04.934Z,82.75
2018-06-04T03:37:31.075Z,82.6
2018-06-04T03:37:57.212Z,82.41
2018-06-04T03:38:23.369Z,82.41
2018-06-04T03:38:49.513Z,82.5
2018-06-04T03:39:15.647Z,82.89
2018-06-04T03:39:41.792Z,82.65
2018-06-04T03:40:07.930Z,82.7
2018-06-04T03:40:34.097Z,82.65
2018-06-04T03:41:00.234Z,82.85
2018-06-04T03:41:26.363Z,82.7
2018-06-04T03:41:52.502Z,82.7
2018-06-04T03:42:18.653Z,82.5
2018-06-04T03:42:44.792Z,82.65
2018-06-04T03:43:10.945Z,82.79
2018-06-04T03:43:37.079Z,83.08
2018-06-04T03:44:03.231Z,82.31
2018-06-04T03:44:29.366Z,82.21
2018-06-04T03:44:55.506Z,81.93
2018-06-04T03:45:21.643Z,81.63
2018-06-04T03:45:47.777Z,81.73
2018-06-04T03:46:13.912Z,81.73
2018-06-04T03:46:40.053Z,81.73
2018-06-04T03:47:06.191Z,81.93
2018-06-04T03:47:32.337Z,81.73
2018-06-04T03:47:58.498Z,81.54
2018-06-04T03:48:24.643Z,81.54
2018-06-04T03:48:50.785Z,81.7
2018-06-04T03:49:16.923Z,81.6
2018-06-04T03:49:43.071Z,81.79
2018-06-04T03:50:09.209Z,81.93
2018-06-04T03:50:35.353Z,82.02
2018-06-04T03:51:01.483Z,82.08
2018-06-04T03:51:27.618Z,82.5
2018-06-04T03:51:53.758Z,81.83
2018-06-04T03:52:19.926Z,81.88
2018-06-04T03:52:46.062Z,82.08
2018-06-04T03:53:12.207Z,82.02
2018-06-04T03:53:38.347Z,81.98
2018-06-04T03:54:04.483Z,81.73
2018-06-04T03:54:30.623Z,81.63
2018-06-04T03:54:56.767Z,81.63
2018-06-04T03:55:22.904Z,81.83
2018-06-04T03:55:49.039Z,81.54
2018-06-04T03:56:15.209Z,81.63
2018-06-04T03:56:41.356Z,81.63
2018-06-04T03:57:07.490Z,82.02
2018-06-04T03:57:33.632Z,81.83
2018-06-04T03:57:59.773Z,81.83
2018-06-04T03:58:25.936Z,82.12
2018-06-04T03:58:52.073Z,82.12
2018-06-04T03:59:18.215Z,81.73
2018-06-04T03:59:44.410Z,81.25
2018-06-04T04:00:10.547Z,81.63
2018-06-04T04:00:36.687Z,81.93
2018-06-04T04:01:02.826Z,81.54
2018-06-04T04:01:28.966Z,82.12
2018-06-04T04:01:55.126Z,82.12
2018-06-04T04:02:21.271Z,82.02
2018-06-04T04:02:47.445Z,81.35
2018-06-04T04:03:13.574Z,81.16
2018-06-04T04:03:39.710Z,81.54
2018-06-04T04:04:05.848Z,81.54
2018-06-04T04:04:31.993Z,81.16
2018-06-04T04:04:58.127Z,81.73
2018-06-04T04:05:24.294Z,81.83
2018-06-04T04:05:50.432Z,81.83
2018-06-04T04:06:16.575Z,82.12
2018-06-04T04:06:42.720Z,81.73
2018-06-04T04:07:08.866Z,81.45
2018-06-04T04:07:35.028Z,81.45
2018-06-04T04:08:01.176Z,82.16
2018-06-04T04:08:27.319Z,81.93
2018-06-04T04:08:53.445Z,81.25
2018-06-04T04:09:19.590Z,81.25
2018-06-04T04:09:45.729Z,81.29
2018-06-04T04:10:11.890Z,81.29
2018-06-04T04:10:38.023Z,81.58
2018-06-04T04:11:04.180Z,81.39
2018-06-04T04:11:30.318Z,81.68
2018-06-04T04:11:56.457Z,81.48
2018-06-04T04:12:22.599Z,80.91
2018-06-04T04:12:48.738Z,81.01
2018-06-04T04:13:14.902Z,80.81
2018-06-04T04:13:41.048Z,81.29
2018-06-04T04:14:07.193Z,81.39
2018-06-04T04:14:33.323Z,81.58
2018-06-04T04:14:59.472Z,81.58
2018-06-04T04:15:25.611Z,81.58
2018-06-04T04:15:51.743Z,81.77
2018-06-04T04:16:17.885Z,81.58
2018-06-04T04:16:44.025Z,81.29
2018-06-04T04:17:10.163Z,81.2
2018-06-04T04:17:36.308Z,81.77
2018-06-04T04:18:02.446Z,81.58
2018-06-04T04:18:28.589Z,81.58
2018-06-04T04:18:54.729Z,81.68
2018-06-04T04:19:20.930Z,81.77
2018-06-04T04:19:47.049Z,81.2
2018-06-04T04:20:13.190Z,80.81
2018-06-04T04:20:39.327Z,80.91
2018-06-04T04:21:05.492Z,81.01
2018-06-04T04:21:31.597Z,80.91
2018-06-04T04:21:57.740Z,80.81
2018-06-04T04:22:23.882Z,80.91
2018-06-04T04:22:50.021Z,80.91
2018-06-04T04:23:16.159Z,80.91
2018-06-04T04:23:42.306Z,80.71
2018-06-04T04:24:08.461Z,80.71
2018-06-04T04:24:34.619Z,80.91
2018-06-04T04:25:00.777Z,80.52
2018-06-04T04:25:26.908Z,80.62
2018-06-04T04:25:53.045Z,80.23
2018-06-04T04:26:19.192Z,80.33
2018-06-04T04:26:45.333Z,80.62
2018-06-04T04:27:11.475Z,80.52
2018-06-04T04:27:37.616Z,80.43
2018-06-04T04:28:03.757Z,80.66
2018-06-04T04:28:29.918Z,80.33
2018-06-04T04:28:56.083Z,80.04
2018-06-04T04:29:22.227Z,80.08
2018-06-04T04:29:48.367Z,80.37
2018-06-04T04:30:14.508Z,80.62
2018-06-04T04:30:40.681Z,80.37
2018-06-04T04:31:06.843Z,80.33
2018-06-04T04:31:32.991Z,80.37
2018-06-04T04:31:59.174Z,80.37
2018-06-04T04:32:25.312Z,80.27
2018-06-04T04:32:51.451Z,80.08
2018-06-04T04:33:17.623Z,80.08
2018-06-04T04:33:43.760Z,79.98
2018-06-04T04:34:09.922Z,80.27
2018-06-04T04:34:36.065Z,80.18
2018-06-04T04:35:02.218Z,79.79
2018-06-04T04:35:28.350Z,79.6
2018-06-04T04:35:54.536Z,79.6
2018-06-04T04:36:20.678Z,79.69
2018-06-04T04:36:46.817Z,79.69
2018-06-04T04:37:12.960Z,79.79
2018-06-04T04:37:39.126Z,79.6
2018-06-04T04:38:05.299Z,80.18
2018-06-04T04:38:31.416Z,79.5
2018-06-04T04:38:57.590Z,79.69
2018-06-04T04:39:23.745Z,79.31
2018-06-04T04:39:49.883Z,79.5
2018-06-04T04:40:16.028Z,79.11
2018-06-04T04:40:42.175Z,79.5
2018-06-04T04:41:08.311Z,79.41
2018-06-04T04:41:34.455Z,79.5
2018-06-04T04:42:00.600Z,79.41
2018-06-04T04:42:26.734Z,78.67
2018-06-04T04:42:52.878Z,78.67
2018-06-04T04:43:19.015Z,78.23
2018-06-04T04:43:45.150Z,77.17
2018-06-04T04:44:11.323Z,77.4
2018-06-04T04:44:37.462Z,76.43
2018-06-04T04:45:03.600Z,75.89
2018-06-04T04:45:29.746Z,74.83
2018-06-04T04:45:55.890Z,73.8
2018-06-04T04:46:22.028Z,73.22
2018-06-04T04:46:48.167Z,72.06
2018-06-04T04:47:14.305Z,71.81
2018-06-04T04:47:40.450Z,71.56
2018-06-04T04:48:06.589Z,70.59
2018-06-04T04:48:32.730Z,70.34
2018-06-04T04:48:58.879Z,69.66
2018-06-04T04:49:25.040Z,68.88
2018-06-04T04:49:51.202Z,68.33
2018-06-04T04:50:17.347Z,68.05
2018-06-04T04:50:43.538Z,66.63
2018-06-04T04:51:09.673Z,66.43
2018-06-04T04:51:35.818Z,65.75
2018-06-04T04:52:01.957Z,64.98
2018-06-04T04:52:28.132Z,64.24
2018-06-04T04:52:54.268Z,64.14
2018-06-04T04:53:20.416Z,64.14
2018-06-04T04:53:46.574Z,63.78
2018-06-04T04:54:12.715Z,63.01
2018-06-04T04:54:38.884Z,62.91
2018-06-04T04:55:05.055Z,62.55
2018-06-04T04:55:31.197Z,61.68
2018-06-04T04:55:57.342Z,61.49
2018-06-04T04:56:23.502Z,60.74
2018-06-04T04:56:49.663Z,61.04
2018-06-04T04:57:15.807Z,60.55
2018-06-04T04:57:41.943Z,60.06
2018-06-04T04:58:08.121Z,59.61
2018-06-04T04:58:34.271Z,59.31
2018-06-04T04:59:00.405Z,59.03
2018-06-04T04:59:26.538Z,58.93
2018-06-04T04:59:52.681Z,58.18
2018-06-04T05:00:18.841Z,58.28
2018-06-04T05:00:44.978Z,57.89
2018-06-04T05:01:11.125Z,58.08
2018-06-04T05:01:37.264Z,57.31
2018-06-04T05:02:03.408Z,57.21
2018-06-04T05:02:29.570Z,57.5
2018-06-04T05:02:55.762Z,57.33
2018-06-04T05:03:21.894Z,57.33
2018-06-04T05:03:48.034Z,57.14
2018-06-04T05:04:14.174Z,57.14
2018-06-04T05:04:40.339Z,56.95
2018-06-04T05:05:06.484Z,56.82
2018-06-04T05:05:32.626Z,57.01
2018-06-04T05:05:58.767Z,56.72
2018-06-04T05:06:24.903Z,57.01
2018-06-04T05:06:51.074Z,57.01
2018-06-04T05:07:17.216Z,57.6
2018-06-04T05:07:43.360Z,57.47
2018-06-04T05:08:09.515Z,57.47
2018-06-04T05:08:35.679Z,57.86
2018-06-04T05:09:01.801Z,58.44
2018-06-04T05:09:27.938Z,58.22
2018-06-04T05:09:54.100Z,59
2018-06-04T05:10:20.241Z,59.19
2018-06-04T05:10:46.382Z,59.09
2018-06-04T05:11:12.545Z,59
2018-06-04T05:11:38.687Z,59.67
2018-06-04T05:12:04.830Z,59.64
2018-06-04T05:12:30.966Z,59.94
2018-06-04T05:12:57.111Z,60.03
2018-06-04T05:13:23.254Z,59.84
2018-06-04T05:13:49.399Z,60.13
2018-06-04T05:14:15.551Z,60.13
2018-06-04T05:14:41.697Z,60.81
2018-06-04T05:15:07.887Z,60.81
2018-06-04T05:15:34.061Z,60.68
2018-06-04T05:16:00.225Z,60.97
2018-06-04T05:16:26.388Z,61.17
2018-06-04T05:16:52.526Z,61.46
2018-06-04T05:17:18.688Z,61.75
2018-06-04T05:17:44.858Z,61.52
2018-06-04T05:18:11.007Z,61.91
2018-06-04T05:18:37.202Z,62.69
2018-06-04T05:19:03.354Z,62.79
2018-06-04T05:19:29.513Z,62.98
2018-06-04T05:19:55.652Z,62.98
2018-06-04T05:20:21.787Z,63.24
2018-06-04T05:20:47.957Z,63.82
2018-06-04T05:21:14.100Z,63.53
2018-06-04T05:21:40.240Z,63.53
2018-06-04T05:22:06.387Z,63.53
2018-06-04T05:22:32.550Z,63.92
2018-06-04T05:22:58.698Z,63.82
2018-06-04T05:23:24.839Z,63.82
2018-06-04T05:23:50.981Z,63.98
2018-06-04T05:24:17.142Z,64.47
2018-06-04T05:24:43.290Z,64.66
2018-06-04T05:25:09.428Z,65.05
2018-06-04T05:25:35.594Z,65.14
2018-06-04T05:26:01.739Z,64.95
2018-06-04T05:26:27.911Z,65.43
2018-06-04T05:26:54.046Z,65.43
2018-06-04T05:27:20.192Z,65.24
2018-06-04T05:27:46.336Z,65.82
2018-06-04T05:28:12.470Z,65.53
2018-06-04T05:28:38.607Z,66.02
2018-06-04T05:29:04.764Z,66.17
2018-06-04T05:29:30.927Z,66.08
2018-06-04T05:29:57.063Z,65.98
2018-06-04T05:30:23.204Z,65.79
2018-06-04T05:30:49.348Z,65.98
2018-06-04T05:31:15.517Z,66.47
2018-06-04T05:31:41.661Z,66.85
2018-06-04T05:32:07.799Z,66.27
2018-06-04T05:32:33.945Z,66.75
2018-06-04T05:33:00.107Z,66.47
2018-06-04T05:33:26.247Z,66.47
2018-06-04T05:33:52.393Z,67.05
2018-06-04T05:34:18.535Z,66.66
2018-06-04T05:34:44.676Z,67.53
2018-06-04T05:35:10.818Z,67.05
2018-06-04T05:35:36.961Z,67.49
2018-06-04T05:36:03.115Z,67.21
2018-06-04T05:36:29.247Z,68.08
2018-06-04T05:36:55.401Z,67.88
2018-06-04T05:37:21.544Z,67.79
2018-06-04T05:37:47.716Z,67.79
2018-06-04T05:38:13.901Z,68.46